sensor_id;sensor_type;location;lat;lon;timestamp;pressure;altitude;pressure_sealevel;temperature;humidity
13027;BME280;6580;42.680;23.324;2023-02-22T00:01:41;95238.09;;;8.92;51.44
13027;BME280;6580;42.680;23.324;2023-02-22T00:04:15;95254.09;;;9.00;51.73
13027;BME280;6580;42.680;23.324;2023-02-22T00:06:46;95242.31;;;8.85;52.32
13027;BME280;6580;42.680;23.324;2023-02-22T00:09:14;95244.50;;;8.89;52.31
13027;BME280;6580;42.680;23.324;2023-02-22T00:11:47;95254.41;;;9.23;51.86
13027;BME280;6580;42.680;23.324;2023-02-22T00:14:15;95241.19;;;9.14;52.11
13027;BME280;6580;42.680;23.324;2023-02-22T00:16:46;95247.03;;;8.91;52.76
13027;BME280;6580;42.680;23.324;2023-02-22T00:19:14;95248.16;;;8.88;53.13
13027;BME280;6580;42.680;23.324;2023-02-22T00:21:41;95221.16;;;8.66;53.26
13027;BME280;6580;42.680;23.324;2023-02-22T00:24:09;95257.72;;;8.81;53.10
13027;BME280;6580;42.680;23.324;2023-02-22T00:26:51;95246.34;;;8.89;52.81
13027;BME280;6580;42.680;23.324;2023-02-22T00:29:20;95241.41;;;8.94;52.67
13027;BME280;6580;42.680;23.324;2023-02-22T00:31:49;95242.78;;;8.98;52.06
13027;BME280;6580;42.680;23.324;2023-02-22T00:34:17;95243.25;;;9.10;51.75
13027;BME280;6580;42.680;23.324;2023-02-22T00:36:45;95240.19;;;9.15;51.56
13027;BME280;6580;42.680;23.324;2023-02-22T00:39:12;95229.31;;;9.08;52.21
13027;BME280;6580;42.680;23.324;2023-02-22T00:41:40;95234.06;;;9.05;52.34
13027;BME280;6580;42.680;23.324;2023-02-22T00:44:10;95231.06;;;9.17;52.01
13027;BME280;6580;42.680;23.324;2023-02-22T00:46:37;95222.97;;;8.92;52.86
13027;BME280;6580;42.680;23.324;2023-02-22T00:49:04;95234.38;;;9.02;53.20
13027;BME280;6580;42.680;23.324;2023-02-22T00:51:30;95225.00;;;8.81;54.41
13027;BME280;6580;42.680;23.324;2023-02-22T00:53:58;95228.09;;;8.76;54.59
13027;BME280;6580;42.680;23.324;2023-02-22T00:56:28;95226.47;;;8.66;55.54
13027;BME280;6580;42.680;23.324;2023-02-22T00:58:55;95214.13;;;8.38;55.75
13027;BME280;6580;42.680;23.324;2023-02-22T01:01:23;95218.25;;;8.59;56.11
13027;BME280;6580;42.680;23.324;2023-02-22T01:03:51;95210.25;;;8.69;55.38
13027;BME280;6580;42.680;23.324;2023-02-22T01:06:19;95207.09;;;8.83;55.18
13027;BME280;6580;42.680;23.324;2023-02-22T01:08:47;95218.91;;;8.71;55.30
13027;BME280;6580;42.680;23.324;2023-02-22T01:11:16;95210.88;;;8.53;56.61
13027;BME280;6580;42.680;23.324;2023-02-22T01:13:43;95211.88;;;8.43;56.62
13027;BME280;6580;42.680;23.324;2023-02-22T01:16:13;95202.09;;;8.53;56.95
13027;BME280;6580;42.680;23.324;2023-02-22T01:18:43;95209.50;;;8.40;57.45
13027;BME280;6580;42.680;23.324;2023-02-22T01:21:16;95207.75;;;8.31;58.54
13027;BME280;6580;42.680;23.324;2023-02-22T01:23:45;95200.91;;;8.28;58.44
13027;BME280;6580;42.680;23.324;2023-02-22T01:26:14;95196.59;;;8.27;58.16
13027;BME280;6580;42.680;23.324;2023-02-22T01:28:42;95207.78;;;8.21;58.99
13027;BME280;6580;42.680;23.324;2023-02-22T01:31:13;95201.47;;;8.32;58.87
13027;BME280;6580;42.680;23.324;2023-02-22T01:33:44;95198.13;;;8.30;59.54
13027;BME280;6580;42.680;23.324;2023-02-22T01:36:11;95201.50;;;8.03;60.97
13027;BME280;6580;42.680;23.324;2023-02-22T01:38:40;95189.81;;;7.87;60.60
13027;BME280;6580;42.680;23.324;2023-02-22T01:41:10;95202.78;;;7.90;60.69
13027;BME280;6580;42.680;23.324;2023-02-22T01:43:37;95201.78;;;8.01;60.50
13027;BME280;6580;42.680;23.324;2023-02-22T01:46:05;95203.31;;;8.03;60.08
13027;BME280;6580;42.680;23.324;2023-02-22T01:48:40;95212.66;;;8.07;59.83
13027;BME280;6580;42.680;23.324;2023-02-22T01:51:14;95202.38;;;7.76;61.63
13027;BME280;6580;42.680;23.324;2023-02-22T01:53:45;95202.50;;;8.02;61.56
13027;BME280;6580;42.680;23.324;2023-02-22T01:56:14;95209.28;;;8.14;61.23
13027;BME280;6580;42.680;23.324;2023-02-22T01:58:45;95196.69;;;7.80;62.39
13027;BME280;6580;42.680;23.324;2023-02-22T02:01:15;95199.31;;;7.99;61.12
13027;BME280;6580;42.680;23.324;2023-02-22T02:03:48;95206.28;;;8.00;62.01
13027;BME280;6580;42.680;23.324;2023-02-22T02:06:18;95204.00;;;8.05;61.82
13027;BME280;6580;42.680;23.324;2023-02-22T02:08:54;95215.22;;;7.99;61.23
13027;BME280;6580;42.680;23.324;2023-02-22T02:11:26;95209.63;;;7.93;62.07
13027;BME280;6580;42.680;23.324;2023-02-22T02:13:56;95209.63;;;7.83;62.95
13027;BME280;6580;42.680;23.324;2023-02-22T02:16:34;95215.25;;;7.80;63.63
13027;BME280;6580;42.680;23.324;2023-02-22T02:19:09;95214.94;;;7.74;63.82
13027;BME280;6580;42.680;23.324;2023-02-22T02:21:55;95215.25;;;7.52;64.78
13027;BME280;6580;42.680;23.324;2023-02-22T02:24:51;95222.78;;;7.37;64.86
13027;BME280;6580;42.680;23.324;2023-02-22T02:27:26;95213.84;;;7.67;63.10
13027;BME280;6580;42.680;23.324;2023-02-22T02:33:17;95223.06;;;7.72;62.64
13027;BME280;6580;42.680;23.324;2023-02-22T02:35:50;95220.41;;;7.72;61.73
13027;BME280;6580;42.680;23.324;2023-02-22T02:38:31;95220.56;;;7.52;62.29
13027;BME280;6580;42.680;23.324;2023-02-22T02:41:09;95217.06;;;7.70;61.93
13027;BME280;6580;42.680;23.324;2023-02-22T02:43:44;95228.09;;;7.56;62.10
13027;BME280;6580;42.680;23.324;2023-02-22T02:46:17;95226.25;;;7.47;63.17
13027;BME280;6580;42.680;23.324;2023-02-22T02:48:55;95227.53;;;7.62;63.46
13027;BME280;6580;42.680;23.324;2023-02-22T02:51:27;95228.91;;;7.47;63.19
13027;BME280;6580;42.680;23.324;2023-02-22T02:53:56;95227.38;;;7.35;63.36
13027;BME280;6580;42.680;23.324;2023-02-22T02:56:24;95232.81;;;7.34;64.42
13027;BME280;6580;42.680;23.324;2023-02-22T02:58:57;95235.59;;;7.51;63.99
13027;BME280;6580;42.680;23.324;2023-02-22T03:01:38;95222.50;;;7.21;65.41
13027;BME280;6580;42.680;23.324;2023-02-22T03:04:30;95238.66;;;7.09;65.54
13027;BME280;6580;42.680;23.324;2023-02-22T03:07:27;95225.97;;;7.22;65.95
13027;BME280;6580;42.680;23.324;2023-02-22T03:10:07;95234.47;;;7.06;67.21
13027;BME280;6580;42.680;23.324;2023-02-22T03:12:45;95241.31;;;7.18;67.45
13027;BME280;6580;42.680;23.324;2023-02-22T03:15:23;95237.97;;;7.35;65.84
13027;BME280;6580;42.680;23.324;2023-02-22T03:18:01;95234.19;;;7.28;66.24
13027;BME280;6580;42.680;23.324;2023-02-22T03:20:40;95207.81;;;6.89;67.53
13027;BME280;6580;42.680;23.324;2023-02-22T03:23:14;95235.13;;;6.90;68.26
13027;BME280;6580;42.680;23.324;2023-02-22T03:25:51;95232.09;;;7.03;68.61
13027;BME280;6580;42.680;23.324;2023-02-22T03:28:23;95230.56;;;7.20;67.26
13027;BME280;6580;42.680;23.324;2023-02-22T03:30:55;95230.88;;;7.17;67.63
13027;BME280;6580;42.680;23.324;2023-02-22T03:33:29;95222.91;;;7.07;67.62
13027;BME280;6580;42.680;23.324;2023-02-22T03:36:10;95229.72;;;7.10;67.79
13027;BME280;6580;42.680;23.324;2023-02-22T03:38:42;95230.44;;;7.21;67.77
13027;BME280;6580;42.680;23.324;2023-02-22T03:41:13;95239.63;;;7.08;69.30
13027;BME280;6580;42.680;23.324;2023-02-22T03:43:48;95232.22;;;7.02;69.03
13027;BME280;6580;42.680;23.324;2023-02-22T03:46:17;95229.06;;;7.36;67.87
13027;BME280;6580;42.680;23.324;2023-02-22T03:48:48;95233.53;;;7.26;67.86
13027;BME280;6580;42.680;23.324;2023-02-22T03:51:21;95242.72;;;7.41;67.67
13027;BME280;6580;42.680;23.324;2023-02-22T03:53:49;95239.94;;;7.33;67.86
13027;BME280;6580;42.680;23.324;2023-02-22T03:56:19;95242.44;;;7.16;69.08
13027;BME280;6580;42.680;23.324;2023-02-22T03:58:48;95231.41;;;7.11;69.72
13027;BME280;6580;42.680;23.324;2023-02-22T04:01:17;95233.78;;;7.14;69.51
13027;BME280;6580;42.680;23.324;2023-02-22T04:03:48;95237.72;;;7.48;68.82
13027;BME280;6580;42.680;23.324;2023-02-22T04:06:15;95221.38;;;7.33;68.92
13027;BME280;6580;42.680;23.324;2023-02-22T04:08:45;95227.78;;;7.21;69.65
13027;BME280;6580;42.680;23.324;2023-02-22T04:11:13;95229.22;;;7.44;68.92
13027;BME280;6580;42.680;23.324;2023-02-22T04:13:42;95235.06;;;7.38;68.62
13027;BME280;6580;42.680;23.324;2023-02-22T04:16:10;95233.53;;;7.26;69.07
13027;BME280;6580;42.680;23.324;2023-02-22T04:18:38;95228.50;;;7.23;69.43
13027;BME280;6580;42.680;23.324;2023-02-22T04:21:06;95233.34;;;7.09;70.23
13027;BME280;6580;42.680;23.324;2023-02-22T04:23:33;95206.03;;;7.08;69.29
13027;BME280;6580;42.680;23.324;2023-02-22T04:26:02;95232.94;;;7.13;68.67
13027;BME280;6580;42.680;23.324;2023-02-22T04:28:29;95244.19;;;6.97;69.54
13027;BME280;6580;42.680;23.324;2023-02-22T04:30:56;95227.50;;;7.05;69.07
13027;BME280;6580;42.680;23.324;2023-02-22T04:33:23;95241.47;;;7.26;68.34
13027;BME280;6580;42.680;23.324;2023-02-22T04:35:50;95246.75;;;7.07;68.68
13027;BME280;6580;42.680;23.324;2023-02-22T04:38:17;95247.28;;;7.11;68.79
13027;BME280;6580;42.680;23.324;2023-02-22T04:40:44;95222.50;;;7.12;67.06
13027;BME280;6580;42.680;23.324;2023-02-22T04:43:13;95211.56;;;6.77;68.11
13027;BME280;6580;42.680;23.324;2023-02-22T04:45:40;95241.81;;;6.94;68.31
13027;BME280;6580;42.680;23.324;2023-02-22T04:48:07;95247.81;;;6.96;67.44
13027;BME280;6580;42.680;23.324;2023-02-22T04:50:34;95241.53;;;6.97;67.29
13027;BME280;6580;42.680;23.324;2023-02-22T04:53:02;95243.28;;;6.68;69.00
13027;BME280;6580;42.680;23.324;2023-02-22T04:55:33;95242.19;;;6.80;69.01
13027;BME280;6580;42.680;23.324;2023-02-22T04:58:03;95248.47;;;6.88;68.82
13027;BME280;6580;42.680;23.324;2023-02-22T05:00:32;95241.38;;;6.79;68.71
13027;BME280;6580;42.680;23.324;2023-02-22T05:02:59;95242.34;;;6.78;68.26
13027;BME280;6580;42.680;23.324;2023-02-22T05:05:25;95253.31;;;6.74;69.56
13027;BME280;6580;42.680;23.324;2023-02-22T05:07:58;95244.78;;;6.61;70.15
13027;BME280;6580;42.680;23.324;2023-02-22T05:10:24;95239.06;;;6.65;69.35
13027;BME280;6580;42.680;23.324;2023-02-22T05:12:53;95252.63;;;6.72;69.23
13027;BME280;6580;42.680;23.324;2023-02-22T05:15:21;95256.06;;;6.63;69.48
13027;BME280;6580;42.680;23.324;2023-02-22T05:17:52;95237.72;;;6.41;70.61
13027;BME280;6580;42.680;23.324;2023-02-22T05:20:22;95255.63;;;6.58;70.06
13027;BME280;6580;42.680;23.324;2023-02-22T05:22:49;95245.72;;;6.50;70.07
13027;BME280;6580;42.680;23.324;2023-02-22T05:25:17;95259.66;;;6.52;70.22
13027;BME280;6580;42.680;23.324;2023-02-22T05:27:49;95256.28;;;6.50;71.07
13027;BME280;6580;42.680;23.324;2023-02-22T05:30:16;95267.88;;;6.59;70.15
13027;BME280;6580;42.680;23.324;2023-02-22T05:32:43;95268.78;;;6.69;70.26
13027;BME280;6580;42.680;23.324;2023-02-22T05:35:13;95272.66;;;6.65;70.72
13027;BME280;6580;42.680;23.324;2023-02-22T05:37:40;95280.03;;;6.61;70.46
13027;BME280;6580;42.680;23.324;2023-02-22T05:40:08;95283.38;;;6.63;70.98
13027;BME280;6580;42.680;23.324;2023-02-22T05:42:34;95280.59;;;6.65;72.46
13027;BME280;6580;42.680;23.324;2023-02-22T05:45:04;95288.53;;;7.13;69.86
13027;BME280;6580;42.680;23.324;2023-02-22T05:47:31;95292.94;;;7.62;67.24
13027;BME280;6580;42.680;23.324;2023-02-22T05:50:00;95270.22;;;7.88;65.07
13027;BME280;6580;42.680;23.324;2023-02-22T05:52:28;95291.13;;;8.19;63.38
13027;BME280;6580;42.680;23.324;2023-02-22T05:54:57;95286.13;;;8.16;63.07
13027;BME280;6580;42.680;23.324;2023-02-22T05:57:25;95293.91;;;7.70;64.59
13027;BME280;6580;42.680;23.324;2023-02-22T05:59:56;95284.56;;;7.66;66.34
13027;BME280;6580;42.680;23.324;2023-02-22T06:02:24;95295.88;;;7.87;64.87
13027;BME280;6580;42.680;23.324;2023-02-22T06:04:51;95298.78;;;7.65;66.08
13027;BME280;6580;42.680;23.324;2023-02-22T06:07:17;95303.81;;;7.78;65.37
13027;BME280;6580;42.680;23.324;2023-02-22T06:09:45;95296.28;;;7.73;65.77
13027;BME280;6580;42.680;23.324;2023-02-22T06:12:13;95305.66;;;7.77;66.15
13027;BME280;6580;42.680;23.324;2023-02-22T06:14:43;95293.78;;;7.62;65.24
13027;BME280;6580;42.680;23.324;2023-02-22T06:17:12;95298.09;;;7.44;66.67
13027;BME280;6580;42.680;23.324;2023-02-22T06:19:40;95290.16;;;7.63;67.64
13027;BME280;6580;42.680;23.324;2023-02-22T06:22:15;95297.00;;;7.85;66.08
13027;BME280;6580;42.680;23.324;2023-02-22T06:24:41;95295.31;;;7.74;65.84
13027;BME280;6580;42.680;23.324;2023-02-22T06:27:18;95288.88;;;7.86;65.54
13027;BME280;6580;42.680;23.324;2023-02-22T06:29:46;95295.56;;;8.09;64.56
13027;BME280;6580;42.680;23.324;2023-02-22T06:32:20;95292.78;;;8.20;63.48
13027;BME280;6580;42.680;23.324;2023-02-22T06:34:49;95270.06;;;8.17;62.77
13027;BME280;6580;42.680;23.324;2023-02-22T06:37:16;95292.94;;;8.74;60.48
13027;BME280;6580;42.680;23.324;2023-02-22T06:39:43;95294.94;;;9.25;57.92
13027;BME280;6580;42.680;23.324;2023-02-22T06:42:11;95297.53;;;9.79;55.54
13027;BME280;6580;42.680;23.324;2023-02-22T06:44:39;95293.28;;;10.46;53.27
13027;BME280;6580;42.680;23.324;2023-02-22T06:47:06;95279.91;;;10.81;50.64
13027;BME280;6580;42.680;23.324;2023-02-22T06:49:35;95282.28;;;10.92;49.44
13027;BME280;6580;42.680;23.324;2023-02-22T06:52:03;95273.56;;;11.15;48.88
13027;BME280;6580;42.680;23.324;2023-02-22T06:54:31;95291.09;;;11.59;47.01
13027;BME280;6580;42.680;23.324;2023-02-22T06:56:59;95289.28;;;11.68;46.95
13027;BME280;6580;42.680;23.324;2023-02-22T06:59:27;95277.69;;;12.09;46.09
13027;BME280;6580;42.680;23.324;2023-02-22T07:01:55;95278.50;;;12.57;45.14
13027;BME280;6580;42.680;23.324;2023-02-22T07:04:24;95284.13;;;12.78;44.42
13027;BME280;6580;42.680;23.324;2023-02-22T07:06:51;95274.13;;;12.88;43.76
13027;BME280;6580;42.680;23.324;2023-02-22T07:09:24;95251.78;;;12.73;43.76
13027;BME280;6580;42.680;23.324;2023-02-22T07:11:51;95279.78;;;12.93;43.44
13027;BME280;6580;42.680;23.324;2023-02-22T07:14:22;95276.66;;;12.57;43.50
13027;BME280;6580;42.680;23.324;2023-02-22T07:16:53;95279.63;;;11.83;44.94
13027;BME280;6580;42.680;23.324;2023-02-22T07:19:21;95285.41;;;11.54;45.85
13027;BME280;6580;42.680;23.324;2023-02-22T07:21:49;95288.03;;;11.46;46.39
13027;BME280;6580;42.680;23.324;2023-02-22T07:24:22;95280.75;;;11.56;46.34
13027;BME280;6580;42.680;23.324;2023-02-22T07:26:51;95292.03;;;11.50;46.40
13027;BME280;6580;42.680;23.324;2023-02-22T07:29:19;95288.88;;;11.13;47.07
13027;BME280;6580;42.680;23.324;2023-02-22T07:31:47;95295.66;;;11.00;47.19
13027;BME280;6580;42.680;23.324;2023-02-22T07:34:15;95283.22;;;11.09;47.32
13027;BME280;6580;42.680;23.324;2023-02-22T07:36:42;95284.88;;;11.10;47.13
13027;BME280;6580;42.680;23.324;2023-02-22T07:39:10;95276.47;;;10.97;47.07
13027;BME280;6580;42.680;23.324;2023-02-22T07:41:37;95273.81;;;10.97;47.47
13027;BME280;6580;42.680;23.324;2023-02-22T07:44:06;95268.84;;;11.02;47.81
13027;BME280;6580;42.680;23.324;2023-02-22T07:46:32;95266.28;;;11.25;46.84
13027;BME280;6580;42.680;23.324;2023-02-22T07:48:59;95266.88;;;11.11;47.17
13027;BME280;6580;42.680;23.324;2023-02-22T07:51:29;95274.16;;;11.43;46.86
13027;BME280;6580;42.680;23.324;2023-02-22T07:53:56;95280.03;;;11.46;46.92
13027;BME280;6580;42.680;23.324;2023-02-22T07:56:23;95280.09;;;11.70;46.19
13027;BME280;6580;42.680;23.324;2023-02-22T07:58:49;95279.75;;;11.65;46.22
13027;BME280;6580;42.680;23.324;2023-02-22T08:01:16;95270.00;;;11.90;45.77
13027;BME280;6580;42.680;23.324;2023-02-22T08:03:43;95266.00;;;12.02;45.58
13027;BME280;6580;42.680;23.324;2023-02-22T08:06:12;95253.44;;;11.86;45.34
13027;BME280;6580;42.680;23.324;2023-02-22T08:08:40;95249.84;;;11.46;46.36
13027;BME280;6580;42.680;23.324;2023-02-22T08:11:07;95268.63;;;11.78;46.26
13027;BME280;6580;42.680;23.324;2023-02-22T08:13:34;95257.63;;;12.13;45.78
13027;BME280;6580;42.680;23.324;2023-02-22T08:16:02;95248.47;;;12.55;45.15
13027;BME280;6580;42.680;23.324;2023-02-22T08:18:29;95250.75;;;13.36;43.32
13027;BME280;6580;42.680;23.324;2023-02-22T08:20:56;95250.59;;;13.90;41.99
13027;BME280;6580;42.680;23.324;2023-02-22T08:23:24;95238.03;;;14.58;40.22
13027;BME280;6580;42.680;23.324;2023-02-22T08:25:53;95253.91;;;14.45;40.02
13027;BME280;6580;42.680;23.324;2023-02-22T08:28:22;95248.81;;;14.87;39.27
13027;BME280;6580;42.680;23.324;2023-02-22T08:30:51;95245.53;;;15.42;38.04
13027;BME280;6580;42.680;23.324;2023-02-22T08:33:18;95238.50;;;16.12;37.22
13027;BME280;6580;42.680;23.324;2023-02-22T08:35:46;95233.22;;;16.60;35.99
13027;BME280;6580;42.680;23.324;2023-02-22T08:38:17;95230.88;;;17.33;35.15
13027;BME280;6580;42.680;23.324;2023-02-22T08:40:47;95227.81;;;17.89;34.08
13027;BME280;6580;42.680;23.324;2023-02-22T08:43:19;95210.69;;;18.16;33.98
13027;BME280;6580;42.680;23.324;2023-02-22T08:45:48;95212.25;;;18.90;33.58
13027;BME280;6580;42.680;23.324;2023-02-22T08:48:17;95217.22;;;19.19;31.71
13027;BME280;6580;42.680;23.324;2023-02-22T08:50:44;95214.28;;;19.40;31.50
13027;BME280;6580;42.680;23.324;2023-02-22T08:53:13;95207.88;;;19.84;30.95
13027;BME280;6580;42.680;23.324;2023-02-22T08:55:41;95214.66;;;19.49;31.15
13027;BME280;6580;42.680;23.324;2023-02-22T08:58:08;95216.09;;;20.15;31.14
13027;BME280;6580;42.680;23.324;2023-02-22T09:00:37;95211.91;;;21.48;29.42
13027;BME280;6580;42.680;23.324;2023-02-22T09:03:05;95201.94;;;22.31;28.10
13027;BME280;6580;42.680;23.324;2023-02-22T09:05:32;95189.13;;;22.79;27.46
13027;BME280;6580;42.680;23.324;2023-02-22T09:08:03;95197.16;;;21.26;28.88
13027;BME280;6580;42.680;23.324;2023-02-22T09:10:33;95206.69;;;20.86;29.69
13027;BME280;6580;42.680;23.324;2023-02-22T09:13:00;95195.81;;;20.61;29.74
13027;BME280;6580;42.680;23.324;2023-02-22T09:15:28;95188.03;;;21.80;28.69
13027;BME280;6580;42.680;23.324;2023-02-22T09:17:57;95186.25;;;22.51;27.84
13027;BME280;6580;42.680;23.324;2023-02-22T09:20:25;95190.16;;;23.07;27.49
13027;BME280;6580;42.680;23.324;2023-02-22T09:22:53;95183.09;;;22.77;27.42
13027;BME280;6580;42.680;23.324;2023-02-22T09:25:21;95176.03;;;24.02;26.44
13027;BME280;6580;42.680;23.324;2023-02-22T09:27:48;95178.84;;;24.90;25.04
13027;BME280;6580;42.680;23.324;2023-02-22T09:30:18;95179.81;;;22.86;26.56
13027;BME280;6580;42.680;23.324;2023-02-22T09:32:45;95170.63;;;21.70;27.68
13027;BME280;6580;42.680;23.324;2023-02-22T09:35:13;95171.69;;;20.53;29.42
13027;BME280;6580;42.680;23.324;2023-02-22T09:37:40;95171.13;;;21.43;29.01
13027;BME280;6580;42.680;23.324;2023-02-22T09:40:14;95157.19;;;22.52;27.30
13027;BME280;6580;42.680;23.324;2023-02-22T09:42:55;95174.28;;;22.93;26.97
13027;BME280;6580;42.680;23.324;2023-02-22T09:45:29;95157.22;;;23.38;25.82
13027;BME280;6580;42.680;23.324;2023-02-22T09:48:02;95173.94;;;21.30;28.33
13027;BME280;6580;42.680;23.324;2023-02-22T09:50:37;95164.56;;;20.90;29.16
13027;BME280;6580;42.680;23.324;2023-02-22T09:53:18;95167.13;;;23.33;27.09
13027;BME280;6580;42.680;23.324;2023-02-22T09:55:56;95158.38;;;24.04;25.81
13027;BME280;6580;42.680;23.324;2023-02-22T09:58:29;95154.28;;;24.58;24.86
13027;BME280;6580;42.680;23.324;2023-02-22T10:01:08;95142.16;;;24.98;24.02
13027;BME280;6580;42.680;23.324;2023-02-22T10:03:47;95139.91;;;22.35;26.82
13027;BME280;6580;42.680;23.324;2023-02-22T10:06:19;95158.00;;;21.93;27.43
13027;BME280;6580;42.680;23.324;2023-02-22T10:08:48;95144.00;;;23.69;25.95
13027;BME280;6580;42.680;23.324;2023-02-22T10:11:27;95133.81;;;25.04;24.09
13027;BME280;6580;42.680;23.324;2023-02-22T10:14:02;95135.50;;;24.89;24.30
13027;BME280;6580;42.680;23.324;2023-02-22T10:16:38;95130.50;;;24.53;24.36
13027;BME280;6580;42.680;23.324;2023-02-22T10:19:18;95122.28;;;24.65;24.93
13027;BME280;6580;42.680;23.324;2023-02-22T10:24:59;95098.69;;;25.78;23.25
13027;BME280;6580;42.680;23.324;2023-02-22T10:27:35;95116.63;;;23.60;24.76
13027;BME280;6580;42.680;23.324;2023-02-22T10:30:07;95107.63;;;23.48;25.59
13027;BME280;6580;42.680;23.324;2023-02-22T10:32:42;95106.97;;;25.29;23.82
13027;BME280;6580;42.680;23.324;2023-02-22T10:35:19;95091.28;;;25.58;23.33
13027;BME280;6580;42.680;23.324;2023-02-22T10:37:47;95085.00;;;24.37;24.06
13027;BME280;6580;42.680;23.324;2023-02-22T10:40:20;95082.22;;;24.21;24.53
13027;BME280;6580;42.680;23.324;2023-02-22T10:42:57;95079.47;;;24.04;25.46
13027;BME280;6580;42.680;23.324;2023-02-22T10:45:27;95070.06;;;25.05;23.98
13027;BME280;6580;42.680;23.324;2023-02-22T10:47:58;95059.69;;;25.40;23.59
13027;BME280;6580;42.680;23.324;2023-02-22T10:50:33;95054.28;;;25.67;23.67
13027;BME280;6580;42.680;23.324;2023-02-22T10:53:01;95036.09;;;26.20;22.79
13027;BME280;6580;42.680;23.324;2023-02-22T10:55:29;95052.03;;;27.22;21.77
13027;BME280;6580;42.680;23.324;2023-02-22T10:58:02;95055.00;;;26.26;23.16
13027;BME280;6580;42.680;23.324;2023-02-22T11:00:33;95054.84;;;26.64;22.46
13027;BME280;6580;42.680;23.324;2023-02-22T11:03:05;95023.66;;;25.60;23.10
13027;BME280;6580;42.680;23.324;2023-02-22T11:05:41;95041.50;;;26.15;23.01
13027;BME280;6580;42.680;23.324;2023-02-22T11:08:29;95046.59;;;26.33;22.53
13027;BME280;6580;42.680;23.324;2023-02-22T11:11:00;95043.19;;;26.74;22.25
13027;BME280;6580;42.680;23.324;2023-02-22T11:13:31;95039.09;;;27.07;21.74
13027;BME280;6580;42.680;23.324;2023-02-22T11:16:00;95041.69;;;25.61;22.86
13027;BME280;6580;42.680;23.324;2023-02-22T11:18:30;95038.00;;;25.72;22.72
13027;BME280;6580;42.680;23.324;2023-02-22T11:21:00;95031.16;;;25.10;23.88
13027;BME280;6580;42.680;23.324;2023-02-22T11:23:28;95026.53;;;25.48;23.08
13027;BME280;6580;42.680;23.324;2023-02-22T11:26:06;95021.06;;;25.27;23.47
13027;BME280;6580;42.680;23.324;2023-02-22T11:28:35;95010.41;;;25.68;22.51
13027;BME280;6580;42.680;23.324;2023-02-22T11:31:13;95017.66;;;26.05;22.15
13027;BME280;6580;42.680;23.324;2023-02-22T11:33:49;95011.94;;;27.01;21.64
13027;BME280;6580;42.680;23.324;2023-02-22T11:36:30;94994.41;;;26.97;21.70
13027;BME280;6580;42.680;23.324;2023-02-22T11:39:03;94993.59;;;28.19;20.08
13027;BME280;6580;42.680;23.324;2023-02-22T11:41:37;95005.47;;;28.99;19.14
13027;BME280;6580;42.680;23.324;2023-02-22T11:44:13;94999.16;;;28.64;19.95
13027;BME280;6580;42.680;23.324;2023-02-22T11:46:46;94990.25;;;27.26;20.76
13027;BME280;6580;42.680;23.324;2023-02-22T11:49:15;94993.81;;;27.92;19.99
13027;BME280;6580;42.680;23.324;2023-02-22T11:51:50;94987.13;;;27.59;19.97
13027;BME280;6580;42.680;23.324;2023-02-22T11:54:29;94983.81;;;25.59;21.92
13027;BME280;6580;42.680;23.324;2023-02-22T11:57:13;94986.75;;;28.01;19.80
13027;BME280;6580;42.680;23.324;2023-02-22T11:59:54;94974.53;;;27.58;20.33
13027;BME280;6580;42.680;23.324;2023-02-22T12:02:48;94995.38;;;24.68;22.08
13027;BME280;6580;42.680;23.324;2023-02-22T12:05:27;94987.19;;;24.85;22.38
13027;BME280;6580;42.680;23.324;2023-02-22T12:08:22;94973.47;;;26.71;20.96
13027;BME280;6580;42.680;23.324;2023-02-22T12:11:01;94959.81;;;27.74;20.03
13027;BME280;6580;42.680;23.324;2023-02-22T12:13:47;94969.16;;;27.83;19.94
13027;BME280;6580;42.680;23.324;2023-02-22T12:16:24;94963.03;;;27.61;19.71
13027;BME280;6580;42.680;23.324;2023-02-22T12:19:09;94961.53;;;26.82;20.59
13027;BME280;6580;42.680;23.324;2023-02-22T12:21:39;94954.78;;;27.46;19.89
13027;BME280;6580;42.680;23.324;2023-02-22T12:24:11;94950.09;;;28.87;18.73
13027;BME280;6580;42.680;23.324;2023-02-22T12:26:42;94958.34;;;28.37;19.68
13027;BME280;6580;42.680;23.324;2023-02-22T12:29:25;94952.19;;;29.30;18.55
13027;BME280;6580;42.680;23.324;2023-02-22T12:31:57;94948.50;;;29.64;18.01
13027;BME280;6580;42.680;23.324;2023-02-22T12:34:31;94932.47;;;29.81;17.81
13027;BME280;6580;42.680;23.324;2023-02-22T12:37:11;94950.91;;;28.73;19.10
13027;BME280;6580;42.680;23.324;2023-02-22T12:39:48;94929.19;;;29.11;18.53
13027;BME280;6580;42.680;23.324;2023-02-22T12:42:40;94931.44;;;28.89;18.58
13027;BME280;6580;42.680;23.324;2023-02-22T12:45:16;94928.41;;;28.86;18.87
13027;BME280;6580;42.680;23.324;2023-02-22T12:47:49;94945.16;;;28.29;19.20
13027;BME280;6580;42.680;23.324;2023-02-22T12:50:19;94936.25;;;27.68;19.16
13027;BME280;6580;42.680;23.324;2023-02-22T12:52:51;94932.88;;;27.51;19.11
13027;BME280;6580;42.680;23.324;2023-02-22T12:55:25;94924.75;;;27.04;19.57
13027;BME280;6580;42.680;23.324;2023-02-22T12:57:58;94925.84;;;26.62;20.11
13027;BME280;6580;42.680;23.324;2023-02-22T13:00:34;94926.25;;;24.53;21.97
13027;BME280;6580;42.680;23.324;2023-02-22T13:03:26;94930.63;;;24.54;21.84
13027;BME280;6580;42.680;23.324;2023-02-22T13:06:18;94930.81;;;25.28;21.16
13027;BME280;6580;42.680;23.324;2023-02-22T13:09:01;94931.19;;;26.42;20.12
13027;BME280;6580;42.680;23.324;2023-02-22T13:11:41;94921.84;;;27.21;20.15
13027;BME280;6580;42.680;23.324;2023-02-22T13:17:12;94919.00;;;25.92;20.97
13027;BME280;6580;42.680;23.324;2023-02-22T13:19:49;94925.50;;;26.90;19.96
13027;BME280;6580;42.680;23.324;2023-02-22T13:22:21;94905.09;;;26.61;20.09
13027;BME280;6580;42.680;23.324;2023-02-22T13:25:00;94922.78;;;25.17;21.39
13027;BME280;6580;42.680;23.324;2023-02-22T13:27:37;94920.16;;;25.74;20.84
13027;BME280;6580;42.680;23.324;2023-02-22T13:30:16;94934.91;;;24.34;22.15
13027;BME280;6580;42.680;23.324;2023-02-22T13:36:00;94937.56;;;21.34;25.40
13027;BME280;6580;42.680;23.324;2023-02-22T13:38:49;94932.00;;;20.82;26.66
13027;BME280;6580;42.680;23.324;2023-02-22T13:47:28;94931.22;;;19.97;28.15